createdAt,value
2022-08-19T00:00:38.407Z,5.40
2022-08-19T00:03:12.382Z,4.60
2022-08-19T00:05:46.394Z,4.20
2022-08-19T00:08:12.948Z,4.28
2022-08-19T00:10:45.405Z,7.53
2022-08-19T00:13:11.980Z,4.65
2022-08-19T00:15:46.432Z,3.72
2022-08-19T00:18:12.830Z,3.60
2022-08-19T00:20:47.395Z,4.60
2022-08-19T00:23:20.399Z,3.57
2022-08-19T00:25:48.641Z,5.80
2022-08-19T00:28:28.379Z,4.15
2022-08-19T00:30:54.785Z,4.43
2022-08-19T00:33:27.390Z,4.45
2022-08-19T00:35:57.192Z,3.77
2022-08-19T00:38:35.091Z,60.85
2022-08-19T00:41:14.382Z,8.07
2022-08-19T00:43:42.075Z,2.25
2022-08-19T00:46:16.392Z,4.10
2022-08-19T00:48:42.819Z,4.03
2022-08-19T00:51:16.394Z,4.40
2022-08-19T00:53:46.610Z,2.03
2022-08-19T00:56:13.048Z,3.03
2022-08-19T00:58:48.377Z,6.63
2022-08-19T01:01:15.146Z,5.27
2022-08-19T01:03:57.077Z,5.03
2022-08-19T01:06:32.382Z,4.55
2022-08-19T01:09:07.401Z,4.50
2022-08-19T01:11:44.567Z,2.63
2022-08-19T01:14:18.366Z,5.87
2022-08-19T01:16:54.604Z,3.17
2022-08-19T01:19:31.961Z,4.13
2022-08-19T01:23:02.395Z,5.43
2022-08-19T01:25:40.427Z,4.72
2022-08-19T01:28:14.397Z,5.17
2022-08-19T01:30:51.188Z,5.30
2022-08-19T01:33:25.442Z,3.70
2022-08-19T01:35:52.388Z,2.70
2022-08-19T01:38:35.383Z,7.57
2022-08-19T01:41:18.584Z,6.37
2022-08-19T01:44:13.389Z,4.40
2022-08-19T01:46:40.382Z,4.30
2022-08-19T01:49:08.856Z,3.40
2022-08-19T01:51:42.376Z,3.20
2022-08-19T01:54:23.300Z,3.20
2022-08-19T01:56:58.644Z,2.28
2022-08-19T01:59:31.364Z,3.72
2022-08-19T02:01:58.270Z,3.42
2022-08-19T02:04:32.376Z,3.50
2022-08-19T02:06:59.133Z,2.40
2022-08-19T02:09:32.393Z,2.35
2022-08-19T02:11:59.335Z,1.50
2022-08-19T02:14:25.778Z,1.30
2022-08-19T02:16:58.374Z,2.90
2022-08-19T02:19:24.966Z,0.80
2022-08-19T02:21:58.374Z,0.77
2022-08-19T02:24:24.920Z,2.92
2022-08-19T02:26:52.116Z,1.30
2022-08-19T02:29:31.367Z,1.23
2022-08-19T02:32:04.360Z,1.07
2022-08-19T02:34:30.806Z,1.85
2022-08-19T02:37:04.003Z,3.22
2022-08-19T02:39:30.614Z,2.22
2022-08-19T02:42:04.367Z,1.52
2022-08-19T02:44:31.971Z,2.00
2022-08-19T02:47:05.359Z,1.90
2022-08-19T02:49:34.848Z,3.15
2022-08-19T02:52:08.358Z,2.30
2022-08-19T02:54:35.312Z,2.58
2022-08-19T02:57:08.366Z,2.10
2022-08-19T02:59:35.026Z,2.25
2022-08-19T03:02:01.445Z,2.13
2022-08-19T03:04:34.360Z,2.95
2022-08-19T03:07:10.725Z,1.70
2022-08-19T03:09:46.366Z,1.77
2022-08-19T03:12:12.871Z,2.05
2022-08-19T03:14:46.376Z,1.33
2022-08-19T03:17:13.561Z,1.77
2022-08-19T03:19:40.761Z,36.97
2022-08-19T03:22:14.355Z,2.07
2022-08-19T03:24:48.360Z,1.35
2022-08-19T03:27:15.112Z,1.67
2022-08-19T03:29:54.359Z,3.83
2022-08-19T03:32:33.095Z,10.32
2022-08-19T03:35:00.100Z,3.73
2022-08-19T03:37:34.351Z,2.80
2022-08-19T03:40:00.768Z,1.63
2022-08-19T03:42:48.865Z,2.80
2022-08-19T03:45:28.360Z,3.72
2022-08-19T03:47:55.889Z,2.80
2022-08-19T03:50:22.389Z,1.90
2022-08-19T03:52:58.355Z,2.03
2022-08-19T03:55:24.855Z,2.17
2022-08-19T03:58:04.422Z,3.90
2022-08-19T04:00:30.804Z,7.00
2022-08-19T04:03:04.358Z,12.43
2022-08-19T04:05:30.753Z,17.25
2022-08-19T04:08:09.595Z,14.25
2022-08-19T04:10:39.123Z,4.72
2022-08-19T04:13:14.360Z,5.70
2022-08-19T04:15:45.880Z,5.13
2022-08-19T04:18:18.396Z,14.70
2022-08-19T04:20:46.735Z,11.77
2022-08-19T04:23:14.807Z,9.70
2022-08-19T04:25:52.376Z,13.10
2022-08-19T04:28:34.331Z,8.15
2022-08-19T04:31:00.718Z,11.05
2022-08-19T04:33:34.336Z,7.72
2022-08-19T04:36:00.907Z,8.95
2022-08-19T04:38:34.348Z,25.30
2022-08-19T04:41:19.375Z,8.40
2022-08-19T04:43:56.371Z,5.90
2022-08-19T04:46:39.456Z,6.90
2022-08-19T04:49:13.061Z,6.38
2022-08-19T04:51:50.365Z,9.47
2022-08-19T04:54:30.972Z,9.57
2022-08-19T04:57:14.361Z,7.78
2022-08-19T04:59:40.918Z,17.38
2022-08-19T05:02:09.504Z,12.73
2022-08-19T05:04:46.338Z,8.23
2022-08-19T05:07:20.323Z,6.07
2022-08-19T05:09:57.925Z,7.07
2022-08-19T05:12:32.425Z,7.45
2022-08-19T05:14:59.296Z,9.82
2022-08-19T05:17:29.451Z,18.87
2022-08-19T05:20:24.340Z,9.23
2022-08-19T05:22:50.904Z,9.80
2022-08-19T05:25:27.350Z,5.68
2022-08-19T05:28:00.365Z,5.75
2022-08-19T05:30:46.157Z,4.97
2022-08-19T05:33:20.339Z,4.43
2022-08-19T05:35:47.106Z,5.72
2022-08-19T05:38:20.337Z,5.50
2022-08-19T05:40:47.991Z,7.43
2022-08-19T05:43:16.646Z,7.13
2022-08-19T05:45:50.335Z,5.93
2022-08-19T05:48:21.444Z,6.78
2022-08-19T05:50:58.329Z,7.82
2022-08-19T05:53:32.337Z,6.63
2022-08-19T05:56:06.382Z,6.10
2022-08-19T05:58:33.801Z,7.82
2022-08-19T06:01:11.344Z,7.35
2022-08-19T06:03:38.415Z,6.78
2022-08-19T06:06:13.338Z,8.82
2022-08-19T06:08:40.234Z,8.83
2022-08-19T06:11:49.017Z,9.02
2022-08-19T06:14:20.326Z,11.63
2022-08-19T06:17:06.645Z,11.57
2022-08-19T06:19:40.717Z,16.25
2022-08-19T06:22:08.248Z,17.93
2022-08-19T06:24:34.842Z,22.17
2022-08-19T06:27:08.322Z,25.02
2022-08-19T06:29:48.331Z,22.30
2022-08-19T06:32:17.451Z,25.73
2022-08-19T06:34:50.332Z,24.33
2022-08-19T06:37:17.026Z,26.75
2022-08-19T06:39:45.333Z,24.98
2022-08-19T06:42:21.654Z,24.23
2022-08-19T06:44:53.699Z,25.73
2022-08-19T06:47:29.052Z,26.87
2022-08-19T06:50:02.922Z,30.55
2022-08-19T06:52:41.327Z,32.80
2022-08-19T06:55:08.264Z,30.15
2022-08-19T06:57:35.265Z,35.42
2022-08-19T07:00:12.265Z,36.10
2022-08-19T07:02:39.351Z,34.17
2022-08-19T07:05:15.519Z,32.90
2022-08-19T07:07:44.876Z,35.63
2022-08-19T07:10:20.335Z,34.08
2022-08-19T07:12:49.025Z,42.40
2022-08-19T07:15:23.395Z,44.05
2022-08-19T07:17:57.516Z,43.92
2022-08-19T07:20:28.483Z,44.05
2022-08-19T07:22:55.575Z,42.13
2022-08-19T07:25:31.943Z,45.83
2022-08-19T07:28:00.019Z,48.00
2022-08-19T07:30:34.525Z,48.42
2022-08-19T07:33:03.544Z,48.78
2022-08-19T07:35:39.324Z,53.10
2022-08-19T07:38:05.752Z,43.90
2022-08-19T07:40:32.187Z,47.30
2022-08-19T07:43:05.330Z,45.13
2022-08-19T07:45:39.325Z,43.38
2022-08-19T07:48:13.369Z,44.38
2022-08-19T07:50:47.307Z,46.30
2022-08-19T07:53:14.051Z,47.20
2022-08-19T07:55:54.315Z,44.38
2022-08-19T07:58:29.326Z,43.95
2022-08-19T08:00:55.850Z,43.35
2022-08-19T08:03:53.311Z,42.10
2022-08-19T08:06:38.148Z,39.20
2022-08-19T08:09:19.541Z,38.25
2022-08-19T08:11:57.725Z,37.78
2022-08-19T08:14:44.127Z,41.95
2022-08-19T08:17:11.385Z,39.67
2022-08-19T08:19:45.524Z,35.00
2022-08-19T08:22:35.312Z,35.15
2022-08-19T08:25:17.454Z,37.05
2022-08-19T08:27:45.520Z,35.42
2022-08-19T08:30:17.067Z,36.10
2022-08-19T08:32:53.328Z,33.65
2022-08-19T08:35:21.985Z,36.75
2022-08-19T08:37:59.317Z,34.13
2022-08-19T08:40:54.311Z,33.65
2022-08-19T08:43:41.352Z,31.47
2022-08-19T08:46:31.269Z,26.83
2022-08-19T08:49:29.323Z,30.42
2022-08-19T08:52:09.344Z,29.52
2022-08-19T08:54:56.513Z,25.65
2022-08-19T08:57:54.528Z,27.77
2022-08-19T09:00:27.398Z,25.85
2022-08-19T09:03:03.356Z,25.08
2022-08-19T09:06:01.187Z,26.65
2022-08-19T09:08:47.320Z,22.60
2022-08-19T09:11:42.527Z,24.37
2022-08-19T09:14:49.670Z,25.83
2022-08-19T09:17:18.364Z,25.27
2022-08-19T09:20:03.317Z,23.02
2022-08-19T09:22:29.930Z,18.08
2022-08-19T09:25:03.363Z,17.07
2022-08-19T09:27:41.979Z,20.27
2022-08-19T09:30:29.362Z,23.13
2022-08-19T09:32:57.816Z,18.48
2022-08-19T09:35:53.126Z,19.02
2022-08-19T09:38:21.341Z,18.07
2022-08-19T09:40:55.323Z,21.80
2022-08-19T09:43:33.152Z,17.58
2022-08-19T09:46:08.340Z,17.40
2022-08-19T09:48:34.778Z,18.70
2022-08-19T09:51:18.319Z,17.53
2022-08-19T09:54:04.912Z,17.30
2022-08-19T09:56:39.470Z,16.10
2022-08-19T09:59:17.354Z,16.05
2022-08-19T10:01:43.999Z,16.05
2022-08-19T10:04:19.735Z,18.17
2022-08-19T10:06:55.490Z,18.33
2022-08-19T10:09:26.022Z,16.40
2022-08-19T10:12:11.316Z,16.83
2022-08-19T10:14:40.134Z,14.48
2022-08-19T10:17:17.642Z,15.17
2022-08-19T10:19:55.502Z,14.18
2022-08-19T10:22:23.442Z,12.15
2022-08-19T10:24:53.039Z,15.80
2022-08-19T10:27:33.516Z,13.32
2022-08-19T10:30:02.233Z,13.73
2022-08-19T10:32:37.491Z,14.90
2022-08-19T10:35:08.882Z,14.40
2022-08-19T10:37:56.846Z,15.40
2022-08-19T10:40:23.617Z,18.75
2022-08-19T10:42:57.328Z,16.93
2022-08-19T10:45:26.892Z,14.82
2022-08-19T10:48:01.307Z,13.10
2022-08-19T10:50:47.952Z,15.88
2022-08-19T10:53:21.503Z,13.68
2022-08-19T10:56:16.418Z,14.83
2022-08-19T10:58:56.358Z,16.13
2022-08-19T11:01:23.036Z,18.27
2022-08-19T11:03:57.307Z,16.73
2022-08-19T11:06:25.897Z,18.23
2022-08-19T11:09:00.323Z,13.63
2022-08-19T11:11:27.714Z,21.92
2022-08-19T11:13:54.683Z,13.32
2022-08-19T11:16:30.350Z,15.18
2022-08-19T11:18:59.394Z,16.10
2022-08-19T11:21:39.323Z,19.30
2022-08-19T11:24:16.215Z,18.55
2022-08-19T11:26:51.360Z,15.35
2022-08-19T11:29:21.137Z,16.58
2022-08-19T11:31:57.484Z,17.63
2022-08-19T11:34:28.498Z,14.67
2022-08-19T11:37:07.310Z,16.88
2022-08-19T11:39:36.444Z,16.52
2022-08-19T11:42:31.500Z,18.83
2022-08-19T11:44:58.053Z,21.63
2022-08-19T11:47:24.955Z,19.83
2022-08-19T11:49:58.319Z,18.80
2022-08-19T11:52:24.884Z,21.90
2022-08-19T11:54:58.306Z,20.83
2022-08-19T11:57:24.718Z,22.58
2022-08-19T11:59:54.076Z,21.80
2022-08-19T12:02:27.309Z,25.60
2022-08-19T12:04:54.760Z,22.42
2022-08-19T12:07:29.523Z,17.98
2022-08-19T12:10:03.563Z,17.55
2022-08-19T12:12:37.296Z,20.13
2022-08-19T12:15:03.991Z,15.88
2022-08-19T12:17:39.314Z,19.98
2022-08-19T12:20:07.631Z,19.73
2022-08-19T12:22:40.508Z,22.05
2022-08-19T12:25:15.501Z,18.00
2022-08-19T12:27:46.838Z,20.10
2022-08-19T12:30:23.339Z,18.35
2022-08-19T12:32:49.811Z,22.90
2022-08-19T12:35:22.347Z,29.65
2022-08-19T12:37:56.662Z,18.63
2022-08-19T12:40:30.303Z,20.75
2022-08-19T12:42:56.792Z,17.63
2022-08-19T12:45:23.627Z,20.20
2022-08-19T12:47:57.523Z,25.13
2022-08-19T12:50:24.073Z,14.20
2022-08-19T12:52:57.452Z,9.57
2022-08-19T12:55:30.335Z,8.75
2022-08-19T12:58:04.271Z,10.43
2022-08-19T13:00:41.393Z,10.13
2022-08-19T13:03:07.844Z,10.27
2022-08-19T13:05:41.449Z,9.52
2022-08-19T13:08:14.335Z,9.05
2022-08-19T13:10:40.983Z,8.43
2022-08-19T13:13:17.506Z,9.05
2022-08-19T13:15:46.025Z,8.43
2022-08-19T13:18:21.520Z,12.68
2022-08-19T13:20:52.698Z,14.88
2022-08-19T13:23:27.495Z,9.85
2022-08-19T13:25:58.907Z,10.82
2022-08-19T13:28:33.304Z,14.03
2022-08-19T13:31:18.133Z,18.70
2022-08-19T13:33:53.298Z,14.55
2022-08-19T13:36:19.690Z,16.05
2022-08-19T13:38:53.332Z,16.48
2022-08-19T13:41:20.237Z,20.43
2022-08-19T13:43:55.340Z,23.25
2022-08-19T13:46:21.963Z,18.00
2022-08-19T13:48:49.298Z,21.00
2022-08-19T13:51:25.324Z,20.77
2022-08-19T13:53:51.708Z,18.07
2022-08-19T13:56:24.200Z,15.90
2022-08-19T13:58:59.524Z,20.08
2022-08-19T14:01:27.587Z,14.35
2022-08-19T14:04:01.532Z,15.75
2022-08-19T14:06:30.548Z,16.43
2022-08-19T14:09:03.308Z,14.90
2022-08-19T14:11:30.527Z,19.60
2022-08-19T14:13:56.969Z,16.88
2022-08-19T14:16:31.336Z,18.25
2022-08-19T14:18:58.028Z,23.27
2022-08-19T14:21:33.287Z,16.88
2022-08-19T14:23:59.728Z,18.17
2022-08-19T14:26:33.757Z,20.60
2022-08-19T14:29:00.727Z,14.40
2022-08-19T14:32:05.300Z,15.77
2022-08-19T14:34:39.302Z,16.58
2022-08-19T14:37:14.341Z,10.82
2022-08-19T14:39:52.559Z,13.23
2022-08-19T14:42:19.195Z,12.35
2022-08-19T14:44:53.494Z,20.87
2022-08-19T14:47:27.300Z,11.18
2022-08-19T14:50:05.012Z,11.07
2022-08-19T14:52:38.495Z,13.77
2022-08-19T14:55:11.663Z,8.35
2022-08-19T14:57:45.327Z,31.17
2022-08-19T15:00:19.642Z,7.78
2022-08-19T15:02:53.478Z,6.82
2022-08-19T15:05:20.105Z,7.28
2022-08-19T15:07:46.694Z,6.85
2022-08-19T15:10:23.333Z,7.63
2022-08-19T15:12:51.843Z,9.98
2022-08-19T15:15:25.323Z,6.50
2022-08-19T15:17:51.798Z,6.55
2022-08-19T15:20:26.302Z,6.53
2022-08-19T15:22:59.511Z,8.20
2022-08-19T15:25:25.956Z,6.60
2022-08-19T15:27:53.844Z,5.90
2022-08-19T15:30:31.318Z,8.15
2022-08-19T15:32:58.828Z,8.48
2022-08-19T15:35:33.338Z,5.57
2022-08-19T15:37:59.798Z,9.05
2022-08-19T15:40:34.281Z,5.13
2022-08-19T15:43:01.400Z,4.38
2022-08-19T15:45:39.305Z,4.60
2022-08-19T15:48:06.246Z,4.10
2022-08-19T15:50:39.292Z,5.20
2022-08-19T15:53:08.575Z,4.10
2022-08-19T15:55:50.308Z,4.97
2022-08-19T15:58:43.308Z,4.78
2022-08-19T16:01:28.246Z,4.67
2022-08-19T16:04:23.528Z,3.97
2022-08-19T16:06:56.620Z,3.75
2022-08-19T16:09:35.347Z,4.35
2022-08-19T16:12:05.023Z,3.80
2022-08-19T16:14:42.486Z,3.13
2022-08-19T16:17:11.693Z,4.03
2022-08-19T16:19:38.616Z,4.28
2022-08-19T16:22:12.318Z,3.83
2022-08-19T16:24:38.960Z,4.50
2022-08-19T16:27:13.451Z,5.00
2022-08-19T16:29:53.306Z,4.20
2022-08-19T16:32:27.292Z,4.63
2022-08-19T16:35:05.988Z,6.82
2022-08-19T16:37:33.846Z,4.72
2022-08-19T16:40:06.632Z,4.37
2022-08-19T16:42:41.288Z,5.25
2022-08-19T16:45:08.965Z,4.72
2022-08-19T16:47:43.441Z,5.97
2022-08-19T16:50:22.145Z,3.90
2022-08-19T16:52:58.526Z,5.37
2022-08-19T16:55:31.306Z,4.15
